Time;durP1;ratioP1;P1;durP2;ratioP2;P2;SDS_P1;SDS_P2;PMS_P1;PMS_P2;Temp;Humidity;BMP_temperature;BMP_pressure;BME280_temperature;BME280_humidity;BME280_pressure;Samples;Min_cycle;Max_cycle;Signal;HPM_P1;HPM_P2
2022/03/31 00:01:30;;;;;;;25.00;23.80;;;;;;;0.66;88.19;100679.22;5072800;28;20426;-44
2022/03/31 00:03:58;;;;;;;24.00;23.00;;;;;;;0.67;88.10;100686.94;5072392;28;20558;-47
2022/03/31 00:06:25;;;;;;;24.30;23.20;;;;;;;0.68;86.30;100685.16;5072836;28;20462;-45
2022/03/31 00:08:53;;;;;;;24.23;23.20;;;;;;;0.63;85.45;100676.84;5072633;28;20445;-44
2022/03/31 00:11:21;;;;;;;24.63;23.73;;;;;;;0.59;84.07;100683.31;5072741;28;20432;-49
2022/03/31 00:13:50;;;;;;;24.93;23.60;;;;;;;0.62;83.60;100683.06;5072390;28;20460;-45
2022/03/31 00:16:18;;;;;;;24.80;23.80;;;;;;;0.55;83.45;100680.97;5072629;28;20419;-44
2022/03/31 00:18:45;;;;;;;26.80;25.50;;;;;;;0.53;82.97;100684.69;5072618;28;20870;-45
2022/03/31 00:21:13;;;;;;;26.20;25.00;;;;;;;0.45;81.33;100680.09;5072244;28;20431;-46
2022/03/31 00:23:40;;;;;;;26.00;24.87;;;;;;;0.41;80.17;100677.91;5072170;28;20456;-46
2022/03/31 00:26:08;;;;;;;26.70;25.50;;;;;;;0.42;79.39;100690.84;5061976;28;20486;-47
2022/03/31 00:28:36;;;;;;;27.43;26.23;;;;;;;0.36;77.98;100690.59;5050001;28;20518;-44
2022/03/31 00:31:05;;;;;;;27.73;26.73;;;;;;;0.33;77.59;100686.41;5050507;28;20442;-49
2022/03/31 00:33:33;;;;;;;28.67;27.57;;;;;;;0.29;76.61;100676.34;5051853;28;20454;-45
2022/03/31 00:36:00;;;;;;;28.40;27.40;;;;;;;0.24;75.01;100691.63;5052148;28;20440;-48
2022/03/31 00:38:28;;;;;;;29.13;28.00;;;;;;;0.23;72.88;100675.06;5052216;28;20435;-44
2022/03/31 00:40:56;;;;;;;28.90;27.77;;;;;;;0.24;72.00;100678.53;5051705;28;20431;-45
2022/03/31 00:43:23;;;;;;;28.77;27.57;;;;;;;0.22;70.23;100670.78;5051699;28;20455;-43
2022/03/31 00:45:56;;;;;;;28.70;27.50;;;;;;;0.24;68.86;100670.66;5056814;28;20470;-44
2022/03/31 00:48:25;;;;;;;29.03;27.63;;;;;;;0.21;68.12;100663.88;5063614;28;20434;-44
2022/03/31 00:50:53;;;;;;;33.47;31.67;;;;;;;0.24;67.38;100671.47;5071824;28;20895;-43
2022/03/31 00:53:21;;;;;;;36.83;35.20;;;;;;;0.25;66.58;100672.31;5071768;28;20475;-43
2022/03/31 00:55:56;;;;;;;35.73;34.03;;;;;;;0.26;65.38;100669.56;5072056;28;20451;-45
2022/03/31 00:58:24;;;;;;;35.40;33.70;;;;;;;0.28;64.99;100669.41;5071813;28;20909;-43
2022/03/31 01:00:51;;;;;;;35.07;33.57;;;;;;;0.27;64.25;100670.41;5071533;28;20960;-44
2022/03/31 01:03:19;;;;;;;36.57;34.87;;;;;;;0.28;64.36;100672.88;5071323;28;20437;-43
2022/03/31 01:05:48;;;;;;;37.20;35.40;;;;;;;0.24;64.82;100670.66;5071611;28;20832;-43
2022/03/31 01:08:17;;;;;;;36.33;34.83;;;;;;;0.22;64.61;100676.03;5071843;28;20446;-44
2022/03/31 01:10:47;;;;;;;36.03;34.33;;;;;;;0.24;63.67;100679.34;5071664;28;20426;-43
2022/03/31 01:13:14;;;;;;;35.40;33.80;;;;;;;0.22;64.06;100677.81;5071171;28;20437;-44
2022/03/31 01:15:42;;;;;;;37.50;35.77;;;;;;;0.21;63.60;100684.84;5071798;28;20541;-44
2022/03/31 01:18:10;;;;;;;37.20;35.50;;;;;;;0.23;62.91;100685.56;5071837;28;20437;-43
2022/03/31 01:20:39;;;;;;;36.13;34.33;;;;;;;0.24;63.37;100681.16;5071516;28;20430;-45
2022/03/31 01:23:12;;;;;;;36.53;34.73;;;;;;;0.23;63.21;100684.72;5071223;28;20426;-43
2022/03/31 01:25:39;;;;;;;37.33;35.53;;;;;;;0.23;62.71;100680.31;5071470;28;20973;-44
2022/03/31 01:28:07;;;;;;;36.40;34.60;;;;;;;0.24;62.74;100673.28;5071757;28;20431;-45
2022/03/31 01:30:36;;;;;;;36.93;35.07;;;;;;;0.21;62.61;100676.97;5071499;28;20818;-48
2022/03/31 01:33:04;;;;;;;38.30;35.97;;;;;;;0.22;62.80;100683.06;5071012;28;20574;-46
2022/03/31 01:35:32;;;;;;;36.70;34.90;;;;;;;0.20;61.93;100677.97;5071306;28;20465;-46
2022/03/31 01:37:59;;;;;;;37.40;35.60;;;;;;;0.17;62.18;100665.09;5071553;28;20456;-44
2022/03/31 01:40:28;;;;;;;36.07;34.40;;;;;;;0.19;62.07;100672.81;5071046;28;20453;-46
2022/03/31 01:42:56;;;;;;;36.73;34.97;;;;;;;0.17;61.46;100678.22;5071628;28;20432;-49
2022/03/31 01:45:24;;;;;;;38.30;36.40;;;;;;;0.17;61.17;100669.53;5062705;28;20467;-45
2022/03/31 01:47:51;;;;;;;38.07;36.13;;;;;;;0.14;61.58;100675.03;5063048;28;20462;-45
2022/03/31 01:50:19;;;;;;;36.07;34.17;;;;;;;0.11;60.96;100670.88;5071848;28;20444;-46
2022/03/31 01:52:47;;;;;;;37.70;35.43;;;;;;;0.06;60.69;100667.00;5075322;28;20809;-44
2022/03/31 01:55:14;;;;;;;36.20;34.40;;;;;;;0.04;59.97;100664.50;5074715;28;20469;-49
2022/03/31 01:57:43;;;;;;;37.27;35.17;;;;;;;0.04;59.21;100667.09;5075512;28;20430;-47
2022/03/31 02:00:13;;;;;;;34.20;32.47;;;;;;;0.00;58.29;100671.78;5075049;28;20440;-45
2022/03/31 02:02:41;;;;;;;34.10;32.60;;;;;;;0.00;57.88;100679.63;5075287;28;20430;-44
2022/03/31 02:05:09;;;;;;;35.90;34.30;;;;;;;0.00;57.36;100679.63;5074557;28;20481;-44
2022/03/31 02:07:38;;;;;;;35.23;33.53;;;;;;;0.03;56.81;100670.69;5074995;28;20553;-44
2022/03/31 02:10:09;;;;;;;36.23;34.67;;;;;;;0.04;57.04;100668.91;5075210;28;20457;-44
2022/03/31 02:12:37;;;;;;;36.40;34.80;;;;;;;0.02;56.41;100676.91;5075084;28;20477;-44
2022/03/31 02:15:07;;;;;;;37.37;35.50;;;;;;;0.02;56.57;100661.19;5074363;28;21018;-45
2022/03/31 02:17:34;;;;;;;35.83;34.27;;;;;;;-0.01;56.39;100672.75;5075027;28;20501;-45
2022/03/31 02:20:02;;;;;;;38.23;36.50;;;;;;;-0.01;56.12;100664.91;5074735;28;20434;-45
2022/03/31 02:22:30;;;;;;;39.27;37.17;;;;;;;0.03;55.45;100672.50;5074852;28;20808;-45
2022/03/31 02:24:57;;;;;;;40.47;38.43;;;;;;;0.03;55.16;100670.69;5074285;28;20472;-45
2022/03/31 02:27:25;;;;;;;39.57;37.50;;;;;;;0.03;55.01;100675.91;5074718;28;20548;-45
2022/03/31 02:29:53;;;;;;;38.63;36.73;;;;;;;0.03;54.92;100673.31;5074728;28;20430;-46
2022/03/31 02:32:22;;;;;;;39.00;37.03;;;;;;;0.07;54.48;100677.34;5074479;28;20430;-47
2022/03/31 02:34:51;;;;;;;39.37;37.47;;;;;;;0.06;54.62;100672.22;5073926;28;20476;-45
2022/03/31 02:37:18;;;;;;;41.00;38.87;;;;;;;0.05;55.09;100671.41;5075258;28;20426;-48
2022/03/31 02:39:46;;;;;;;39.10;37.00;;;;;;;0.05;54.22;100671.41;5074643;28;20441;-48
2022/03/31 02:42:14;;;;;;;38.67;36.67;;;;;;;0.06;54.63;100669.63;5074309;28;20425;-45
2022/03/31 02:44:42;;;;;;;39.27;37.20;;;;;;;0.06;53.79;100685.34;5070417;28;20463;-49
2022/03/31 02:47:10;;;;;;;35.57;33.67;;;;;;;0.07;54.54;100676.50;5062348;28;20473;-49
2022/03/31 02:49:40;;;;;;;35.43;33.73;;;;;;;0.06;54.64;100677.47;5073894;28;21000;-49
2022/03/31 02:52:08;;;;;;;36.83;35.13;;;;;;;0.07;54.12;100679.97;5074051;28;20440;-49
2022/03/31 02:57:21;;;;;;;36.70;34.90;;;;;;;0.07;54.90;100668.63;5074159;28;20433;-48
2022/03/31 02:59:48;;;;;;;35.27;33.67;;;;;;;0.07;54.49;100671.25;5074541;28;20439;-48
2022/03/31 03:02:16;;;;;;;34.97;33.20;;;;;;;0.04;54.98;100680.22;5073275;28;20422;-46
2022/03/31 03:04:45;;;;;;;36.60;34.67;;;;;;;0.02;55.15;100671.66;5073517;28;20470;-49
2022/03/31 03:07:13;;;;;;;34.87;33.13;;;;;;;0.01;55.12;100677.84;5073879;28;20980;-48
2022/03/31 03:09:40;;;;;;;33.47;31.93;;;;;;;-0.05;56.87;100676.59;5074046;28;20452;-49
2022/03/31 03:12:10;;;;;;;35.33;33.30;;;;;;;-0.04;58.38;100680.03;5073799;28;20434;-50
2022/03/31 03:14:38;;;;;;;35.10;33.27;;;;;;;-0.01;57.46;100678.00;5073265;28;20471;-47
2022/03/31 03:17:05;;;;;;;33.17;31.70;;;;;;;0.01;57.64;100685.72;5073941;28;20970;-47
2022/03/31 03:19:33;;;;;;;35.87;34.17;;;;;;;-0.02;58.92;100684.19;5073865;28;20430;-49
2022/03/31 03:22:02;;;;;;;34.93;33.33;;;;;;;0.00;59.92;100670.97;5073769;28;20437;-47
2022/03/31 03:24:30;;;;;;;33.70;32.10;;;;;;;-0.02;61.52;100680.75;5073281;28;20488;-45
2022/03/31 03:26:58;;;;;;;31.80;30.40;;;;;;;-0.06;66.35;100671.50;5073728;28;20961;-46
2022/03/31 03:29:26;;;;;;;32.20;30.90;;;;;;;-0.04;66.62;100680.03;5066187;28;20439;-46
2022/03/31 03:31:53;;;;;;;32.07;30.77;;;;;;;0.00;65.46;100684.88;5065201;28;20433;-48
2022/03/31 03:34:21;;;;;;;31.50;30.40;;;;;;;-0.03;68.27;100679.09;5072852;28;20468;-45
2022/03/31 03:36:49;;;;;;;31.33;29.63;;;;;;;-0.02;70.80;100686.81;5073381;28;20431;-45
2022/03/31 03:39:18;;;;;;;29.60;28.10;;;;;;;-0.02;70.85;100685.97;5073527;28;20521;-46
2022/03/31 03:41:45;;;;;;;29.50;28.20;;;;;;;-0.02;73.65;100686.81;5073095;28;20439;-45
2022/03/31 03:44:13;;;;;;;29.07;27.97;;;;;;;-0.01;73.47;100674.53;5072875;28;20473;-47
2022/03/31 03:46:41;;;;;;;30.00;28.80;;;;;;;0.06;71.96;100678.28;5061741;28;20434;-49
2022/03/31 03:49:08;;;;;;;29.57;28.40;;;;;;;0.06;73.28;100669.63;5062297;28;20479;-48
2022/03/31 03:51:36;;;;;;;28.40;26.97;;;;;;;0.08;71.65;100673.75;5043035;28;20431;-45
2022/03/31 03:54:04;;;;;;;28.87;27.70;;;;;;;0.12;72.51;100671.72;5055735;28;20474;-46
2022/03/31 03:56:33;;;;;;;29.10;27.83;;;;;;;0.14;71.54;100673.25;5071931;28;20426;-46
2022/03/31 03:59:00;;;;;;;31.40;29.87;;;;;;;0.15;70.81;100658.34;5064119;28;20431;-46
2022/03/31 04:01:28;;;;;;;28.40;27.10;;;;;;;0.14;71.74;100673.25;5064424;28;20521;-47
2022/03/31 04:03:55;;;;;;;29.90;28.50;;;;;;;0.18;71.22;100679.06;5072173;28;20500;-45
2022/03/31 04:06:23;;;;;;;29.60;28.30;;;;;;;0.19;71.43;100678.91;5071759;28;20435;-45
2022/03/31 04:08:51;;;;;;;31.90;30.60;;;;;;;0.20;71.71;100667.47;5072934;28;20470;-45
2022/03/31 04:11:18;;;;;;;32.10;30.40;;;;;;;0.20;70.61;100666.63;5072892;28;20430;-45
2022/03/31 04:13:48;;;;;;;31.53;30.13;;;;;;;0.20;70.55;100661.38;5071494;28;20470;-48
2022/03/31 04:16:16;;;;;;;30.83;29.53;;;;;;;0.17;70.46;100670.34;5072593;28;20805;-44
2022/03/31 04:18:44;;;;;;;31.70;30.10;;;;;;;0.18;70.57;100668.56;5072378;28;20925;-48
2022/03/31 04:21:13;;;;;;;33.50;31.80;;;;;;;0.18;70.35;100676.44;5072594;28;20435;-45
2022/03/31 04:23:41;;;;;;;32.03;30.40;;;;;;;0.21;70.06;100681.41;5072141;28;20465;-49
2022/03/31 04:26:09;;;;;;;33.50;31.60;;;;;;;0.20;70.46;100679.75;5072566;28;20945;-45
2022/03/31 04:28:37;;;;;;;32.70;31.10;;;;;;;0.22;70.10;100673.41;5072453;28;20474;-45
2022/03/31 04:31:06;;;;;;;31.70;29.87;;;;;;;0.25;70.06;100677.53;5072135;28;20431;-45
2022/03/31 04:33:34;;;;;;;31.20;29.70;;;;;;;0.28;69.88;100674.66;5071789;28;20524;-50
2022/03/31 04:36:01;;;;;;;32.80;31.20;;;;;;;0.29;70.53;100679.78;5072371;28;20434;-45
2022/03/31 04:38:29;;;;;;;32.17;30.73;;;;;;;0.29;69.24;100679.78;5072228;28;20952;-47
2022/03/31 04:40:56;;;;;;;32.07;30.37;;;;;;;0.30;69.75;100672.75;5071852;28;20941;-45
2022/03/31 04:43:24;;;;;;;30.93;29.53;;;;;;;0.24;71.20;100666.22;5071586;28;20462;-45
2022/03/31 04:45:52;;;;;;;32.33;30.37;;;;;;;0.22;71.82;100676.03;5063865;28;21143;-45
2022/03/31 04:48:21;;;;;;;32.17;30.57;;;;;;;0.25;72.09;100677.53;5063797;28;20473;-45
2022/03/31 04:50:49;;;;;;;31.17;29.70;;;;;;;0.20;73.54;100679.75;5071923;28;20427;-46
2022/03/31 04:53:17;;;;;;;30.97;29.57;;;;;;;0.17;73.78;100680.00;5071467;28;20430;-45
2022/03/31 04:55:44;;;;;;;31.47;30.17;;;;;;;0.17;75.38;100690.50;5071776;28;20500;-44
2022/03/31 04:58:12;;;;;;;32.50;30.90;;;;;;;0.20;75.29;100677.13;5071782;28;20435;-44
2022/03/31 05:00:40;;;;;;;33.67;32.07;;;;;;;0.21;73.32;100697.94;5071577;28;20427;-45
2022/03/31 05:03:08;;;;;;;31.60;30.23;;;;;;;0.24;74.89;100687.19;5071566;28;20839;-46
2022/03/31 05:05:37;;;;;;;31.50;30.20;;;;;;;0.26;75.80;100693.16;5071970;28;20462;-46
2022/03/31 05:08:05;;;;;;;30.10;28.70;;;;;;;0.26;77.35;100692.31;5071831;28;20474;-45
2022/03/31 05:10:34;;;;;;;28.67;27.57;;;;;;;0.25;78.79;100693.28;5071529;28;20434;-46
2022/03/31 05:13:01;;;;;;;27.63;26.53;;;;;;;0.25;80.74;100707.22;5071611;28;20426;-45
2022/03/31 05:15:29;;;;;;;27.10;25.93;;;;;;;0.26;80.99;100710.69;5071619;28;20442;-47
2022/03/31 05:18:01;;;;;;;27.67;26.37;;;;;;;0.30;81.25;100702.41;5071866;28;20847;-45
2022/03/31 05:20:29;;;;;;;26.93;25.73;;;;;;;0.30;82.47;100712.91;5071555;28;20431;-45
2022/03/31 05:22:58;;;;;;;27.87;25.70;;;;;;;0.32;82.02;100713.63;5071711;28;20430;-45
2022/03/31 05:25:25;;;;;;;26.70;25.40;;;;;;;0.33;81.58;100717.09;5071045;28;20463;-44
2022/03/31 05:27:53;;;;;;;25.23;23.73;;;;;;;0.35;81.00;100712.53;5071439;28;20448;-47
2022/03/31 05:30:21;;;;;;;24.67;23.37;;;;;;;0.34;81.60;100701.19;5071521;28;20441;-46
2022/03/31 05:32:51;;;;;;;24.30;23.13;;;;;;;0.37;81.36;100713.22;5071742;28;20856;-46
2022/03/31 05:35:19;;;;;;;23.37;22.27;;;;;;;0.36;81.23;100711.56;5070972;28;21018;-45
2022/03/31 05:37:47;;;;;;;23.37;21.87;;;;;;;0.35;82.41;100709.91;5071525;28;20453;-44
2022/03/31 05:40:18;;;;;;;20.43;19.20;;;;;;;0.30;84.80;100707.66;5071260;28;20437;-48
2022/03/31 05:42:45;;;;;;;19.33;18.37;;;;;;;0.24;86.54;100710.81;5071675;28;20431;-48
2022/03/31 05:45:14;;;;;;;17.07;16.30;;;;;;;0.28;87.20;100714.00;5063085;28;20463;-47
2022/03/31 05:47:43;;;;;;;15.70;15.10;;;;;;;0.26;93.85;100708.91;5051692;28;20419;-51
2022/03/31 05:50:12;;;;;;;14.33;13.73;;;;;;;0.29;96.95;100713.03;5051192;28;20471;-46
2022/03/31 05:52:42;;;;;;;12.37;11.67;;;;;;;0.33;98.54;100722.31;5051128;28;20434;-46
2022/03/31 05:55:11;;;;;;;10.23;9.50;;;;;;;0.33;100.00;100719.69;5050958;28;20471;-47
2022/03/31 05:57:41;;;;;;;9.17;8.70;;;;;;;0.33;100.00;100732.81;5051538;28;20428;-46
2022/03/31 06:00:10;;;;;;;10.40;9.90;;;;;;;0.34;100.00;100719.56;5051455;28;20447;-45
2022/03/31 06:02:38;;;;;;;10.70;10.37;;;;;;;0.42;100.00;100732.84;5051239;28;20437;-45
2022/03/31 06:05:17;;;;;;;9.43;9.03;;;;;;;0.39;100.00;100722.59;5050620;28;20478;-45
2022/03/31 06:07:45;;;;;;;8.40;8.10;;;;;;;0.43;100.00;100734.50;5051413;28;20435;-45
2022/03/31 06:10:13;;;;;;;8.57;8.17;;;;;;;0.46;100.00;100733.41;5051024;28;20478;-45
2022/03/31 06:12:42;;;;;;;7.53;7.23;;;;;;;0.43;100.00;100731.03;5051211;28;20435;-45
2022/03/31 06:15:10;;;;;;;6.87;6.50;;;;;;;0.49;100.00;100718.25;5050613;28;20467;-48
2022/03/31 06:17:42;;;;;;;8.77;8.47;;;;;;;0.64;100.00;100723.94;5050932;28;20427;-47
2022/03/31 06:20:11;;;;;;;7.57;7.17;;;;;;;0.77;100.00;100749.97;5051405;28;20431;-45
2022/03/31 06:22:39;;;;;;;8.60;7.47;;;;;;;0.74;100.00;100727.44;5051151;28;20431;-46
2022/03/31 06:25:11;;;;;;;7.23;6.57;;;;;;;0.68;100.00;100738.47;5050538;28;20544;-45
2022/03/31 06:27:39;;;;;;;6.97;6.57;;;;;;;0.65;100.00;100732.66;5051034;28;20431;-47
2022/03/31 06:30:09;;;;;;;12.80;7.50;;;;;;;0.69;100.00;100728.81;5050789;28;20467;-45
2022/03/31 06:32:38;;;;;;;6.90;6.50;;;;;;;0.75;100.00;100744.84;5051289;28;20427;-46
2022/03/31 06:35:11;;;;;;;6.93;6.63;;;;;;;0.75;98.70;100742.22;5050479;28;20467;-49
2022/03/31 06:37:39;;;;;;;7.20;6.70;;;;;;;0.79;97.95;100746.22;5052110;28;20438;-46
2022/03/31 06:40:09;;;;;;;7.20;6.63;;;;;;;0.78;96.79;100738.47;5054554;28;20446;-46
2022/03/31 06:42:37;;;;;;;7.90;7.50;;;;;;;0.81;96.41;100730.34;5054427;28;20992;-48
2022/03/31 06:45:08;;;;;;;10.00;9.50;;;;;;;0.93;95.44;100740.59;5047403;28;20463;-45
2022/03/31 06:47:57;;;;;;;10.63;10.23;;;;;;;0.98;95.92;100740.22;5056655;28;20459;-47
2022/03/31 06:50:30;;;;;;;11.77;11.00;;;;;;;1.06;95.06;100750.84;5054023;28;20482;-47
2022/03/31 06:52:58;;;;;;;11.20;10.63;;;;;;;1.17;95.67;100742.00;5054130;28;20431;-50
2022/03/31 06:55:27;;;;;;;12.33;11.73;;;;;;;1.29;96.15;100757.53;5053778;28;20463;-47
2022/03/31 06:57:55;;;;;;;11.50;10.60;;;;;;;1.38;96.92;100759.31;5054408;28;20493;-45
2022/03/31 07:00:23;;;;;;;9.70;9.33;;;;;;;1.39;91.07;100763.63;5054143;28;20435;-47
2022/03/31 07:02:51;;;;;;;8.63;8.33;;;;;;;1.43;90.71;100778.16;5054094;28;20527;-47
2022/03/31 07:05:21;;;;;;;9.80;9.30;;;;;;;1.58;92.44;100762.81;5053487;28;20467;-47
2022/03/31 07:07:49;;;;;;;11.10;10.60;;;;;;;1.64;93.92;100764.88;5053981;28;20435;-49
2022/03/31 07:10:16;;;;;;;9.83;9.43;;;;;;;1.60;92.50;100769.59;5053652;28;20986;-45
2022/03/31 07:12:44;;;;;;;11.00;10.50;;;;;;;1.54;85.77;100771.94;5053909;28;20937;-49
2022/03/31 07:15:12;;;;;;;10.07;9.47;;;;;;;1.52;86.98;100766.78;5053369;28;20467;-46
2022/03/31 07:17:40;;;;;;;9.70;9.23;;;;;;;1.51;86.64;100751.19;5053875;28;20810;-45
2022/03/31 07:20:08;;;;;;;8.00;7.60;;;;;;;1.51;82.41;100780.09;5053719;28;20427;-51
2022/03/31 07:22:44;;;;;;;8.37;7.90;;;;;;;1.52;80.87;100785.19;5053910;28;20427;-49
2022/03/31 07:25:12;;;;;;;8.00;7.60;;;;;;;1.59;82.45;100775.81;5053356;28;20630;-48
2022/03/31 07:27:40;;;;;;;6.23;5.93;;;;;;;1.58;78.89;100761.00;5053768;28;20431;-47
2022/03/31 07:30:11;;;;;;;6.00;5.80;;;;;;;1.63;80.34;100787.72;5053566;28;21013;-48
2022/03/31 07:32:47;;;;;;;6.20;6.00;;;;;;;1.69;79.61;100762.66;5053699;28;20478;-49
2022/03/31 07:35:14;;;;;;;5.90;5.30;;;;;;;1.75;80.49;100782.31;5052799;28;20497;-46
2022/03/31 07:37:44;;;;;;;8.13;7.17;;;;;;;1.84;83.13;100776.22;5053611;28;20790;-47
2022/03/31 07:40:12;;;;;;;6.33;5.90;;;;;;;1.94;83.69;100774.41;5053300;28;20427;-49
2022/03/31 07:42:40;;;;;;;8.27;7.87;;;;;;;2.05;85.48;100776.88;5053509;28;20438;-46
2022/03/31 07:45:09;;;;;;;7.57;7.03;;;;;;;2.06;84.82;100776.72;5045769;28;20855;-48
2022/03/31 07:47:36;;;;;;;7.70;7.30;;;;;;;2.02;80.60;100779.78;5064269;28;20445;-50
2022/03/31 07:50:05;;;;;;;6.50;6.07;;;;;;;2.07;79.47;100774.94;5072993;28;20564;-49
2022/03/31 07:52:32;;;;;;;6.90;6.70;;;;;;;2.11;79.37;100771.06;5073194;28;20433;-52
2022/03/31 07:55:09;;;;;;;5.73;5.53;;;;;;;2.21;80.69;100780.56;5072538;28;20470;-46
2022/03/31 07:57:37;;;;;;;6.43;6.03;;;;;;;2.26;80.73;100771.44;5073280;28;20423;-48
2022/03/31 08:00:06;;;;;;;6.10;5.80;;;;;;;2.39;81.19;100777.22;5073372;28;20433;-48
2022/03/31 08:02:34;;;;;;;8.03;7.43;;;;;;;2.43;80.46;100779.41;5073055;28;20437;-48
2022/03/31 08:05:02;;;;;;;6.90;6.70;;;;;;;2.45;79.08;100774.81;5072291;28;20470;-46
2022/03/31 08:07:35;;;;;;;6.10;5.80;;;;;;;2.47;78.03;100767.63;5072954;28;20798;-47
2022/03/31 08:10:03;;;;;;;5.50;5.23;;;;;;;2.59;78.46;100769.13;5072594;28;20472;-49
2022/03/31 08:12:33;;;;;;;6.83;6.37;;;;;;;2.66;77.71;100785.13;5072912;28;20434;-47
2022/03/31 08:15:03;;;;;;;6.57;6.37;;;;;;;2.62;76.33;100762.72;5072380;28;20462;-46
2022/03/31 08:17:31;;;;;;;6.60;6.37;;;;;;;2.61;74.86;100782.13;5072827;28;20884;-45
2022/03/31 08:19:59;;;;;;;8.53;5.93;;;;;;;2.66;74.93;100782.50;5072694;28;20465;-47
2022/03/31 08:22:27;;;;;;;6.47;6.17;;;;;;;2.64;74.32;100777.41;5072292;28;20433;-47
2022/03/31 08:25:00;;;;;;;6.30;6.10;;;;;;;2.70;74.86;100783.88;5071927;28;20469;-46
2022/03/31 08:27:28;;;;;;;6.10;5.60;;;;;;;2.69;72.75;100787.50;5072659;28;20437;-50
2022/03/31 08:29:57;;;;;;;6.10;5.70;;;;;;;2.68;72.87;100794.59;5072542;28;20564;-48
2022/03/31 08:32:25;;;;;;;5.67;5.27;;;;;;;2.69;72.02;100798.84;5072168;28;20436;-48
2022/03/31 08:34:53;;;;;;;4.70;4.60;;;;;;;2.76;72.83;100783.31;5071689;28;20876;-48
2022/03/31 08:37:20;;;;;;;4.73;4.53;;;;;;;2.82;72.31;100790.63;5072505;28;20476;-45
2022/03/31 08:39:48;;;;;;;5.60;5.30;;;;;;;2.88;72.99;100773.41;5072405;28;20437;-46
2022/03/31 08:42:16;;;;;;;4.60;4.40;;;;;;;2.95;72.66;100791.13;5071987;28;20921;-46
2022/03/31 08:44:43;;;;;;;4.93;4.73;;;;;;;2.88;70.77;100790.06;5068090;28;21000;-46
2022/03/31 08:47:16;;;;;;;4.57;4.37;;;;;;;2.88;70.54;100789.22;5060231;28;20428;-47
2022/03/31 08:50:04;;;;;;;4.80;4.30;;;;;;;2.95;71.87;100792.94;5032281;28;20874;-52
2022/03/31 08:52:32;;;;;;;5.07;4.67;;;;;;;2.93;72.18;100795.69;5032133;28;20433;-47
2022/03/31 08:55:00;;;;;;;6.00;4.77;;;;;;;2.91;70.97;100794.19;5031687;28;20471;-50
2022/03/31 08:57:39;;;;;;;5.07;4.53;;;;;;;2.87;68.41;100800.75;5032200;28;20424;-50
2022/03/31 09:00:08;;;;;;;4.73;4.53;;;;;;;2.92;69.14;100801.13;5031333;28;20439;-46
2022/03/31 09:02:38;;;;;;;5.60;5.07;;;;;;;2.94;68.59;100809.72;5032261;28;20428;-49
2022/03/31 09:05:09;;;;;;;5.20;4.90;;;;;;;3.12;69.94;100800.88;5031400;28;20472;-50
2022/03/31 09:07:51;;;;;;;4.50;4.30;;;;;;;3.03;65.97;100811.47;5032079;28;20428;-51
2022/03/31 09:10:29;;;;;;;5.90;5.60;;;;;;;2.97;65.66;100819.94;5031579;28;20474;-46
2022/03/31 09:12:57;;;;;;;4.73;4.57;;;;;;;3.09;65.41;100824.88;5032216;28;20424;-46
2022/03/31 09:15:34;;;;;;;4.23;4.03;;;;;;;2.99;61.71;100837.25;5031542;28;20531;-51
2022/03/31 09:18:03;;;;;;;5.50;5.10;;;;;;;3.05;62.49;100820.03;5031840;28;20436;-46
2022/03/31 09:20:39;;;;;;;4.30;4.10;;;;;;;2.96;59.95;100837.56;5031643;28;20432;-48
2022/03/31 09:23:07;;;;;;;4.93;4.30;;;;;;;3.05;60.01;100843.75;5031500;28;20438;-48
2022/03/31 09:25:35;;;;;;;4.30;4.10;;;;;;;3.08;60.45;100835.56;5031869;28;20456;-50
2022/03/31 09:28:12;;;;;;;4.03;3.80;;;;;;;3.16;60.29;100833.03;5032136;28;20428;-48
2022/03/31 09:30:48;;;;;;;4.50;4.30;;;;;;;3.03;58.50;100840.44;5031460;28;20472;-46
2022/03/31 09:33:32;;;;;;;4.10;4.00;;;;;;;3.08;59.78;100856.63;5031239;28;20452;-46
2022/03/31 09:36:03;;;;;;;3.70;3.50;;;;;;;3.12;60.73;100855.38;5032134;28;20436;-47
2022/03/31 09:38:35;;;;;;;4.10;3.70;;;;;;;3.07;59.81;100847.94;5031936;28;20438;-50
2022/03/31 09:41:04;;;;;;;7.00;4.30;;;;;;;3.18;60.20;100862.69;5031594;28;20424;-47
2022/03/31 09:43:41;;;;;;;5.27;3.97;;;;;;;3.25;59.95;100842.69;5031071;28;20459;-46
2022/03/31 09:46:24;;;;;;;4.07;3.70;;;;;;;3.19;58.71;100852.03;5054069;28;20418;-46
2022/03/31 09:49:10;;;;;;;4.33;4.13;;;;;;;3.25;58.37;100859.34;5059660;28;20438;-44
2022/03/31 09:51:37;;;;;;;4.27;4.03;;;;;;;3.30;58.21;100854.47;5071347;28;20466;-47
2022/03/31 09:54:05;;;;;;;3.90;3.70;;;;;;;3.31;56.62;100836.84;5070805;28;20544;-45
2022/03/31 09:56:35;;;;;;;3.87;3.60;;;;;;;3.38;57.62;100821.25;5071496;28;20430;-48
2022/03/31 09:59:04;;;;;;;4.20;4.00;;;;;;;3.44;57.50;100862.81;5071203;28;20426;-45
2022/03/31 10:01:32;;;;;;;4.40;4.20;;;;;;;3.39;55.63;100863.28;5071067;28;20432;-46
2022/03/31 10:04:02;;;;;;;3.83;3.73;;;;;;;3.50;55.65;100867.50;5070976;28;20470;-49
2022/03/31 10:06:30;;;;;;;3.33;3.13;;;;;;;3.41;54.40;100871.88;5071840;28;20429;-45
2022/03/31 10:08:57;;;;;;;3.60;3.40;;;;;;;3.55;55.97;100874.03;5071124;28;20437;-48
2022/03/31 10:11:28;;;;;;;4.00;3.80;;;;;;;3.44;54.03;100874.22;5071883;28;20496;-46
2022/03/31 10:14:09;;;;;;;4.00;3.60;;;;;;;3.55;53.67;100862.66;5074654;28;20466;-46
2022/03/31 10:16:47;;;;;;;3.50;3.30;;;;;;;3.59;54.53;100864.00;5075135;28;20517;-48
2022/03/31 10:19:28;;;;;;;3.53;3.43;;;;;;;3.59;55.26;100878.00;5075141;28;20434;-47
2022/03/31 10:22:01;;;;;;;3.67;3.47;;;;;;;3.65;57.19;100874.78;5074993;28;20429;-48
2022/03/31 10:24:46;;;;;;;4.60;4.20;;;;;;;3.56;55.52;100859.84;5074393;28;21023;-47
2022/03/31 10:27:27;;;;;;;4.23;3.53;;;;;;;3.71;57.05;100871.53;5074931;28;20955;-47
2022/03/31 10:29:55;;;;;;;3.00;2.80;;;;;;;3.81;55.83;100868.84;5074677;28;20533;-46
2022/03/31 10:32:25;;;;;;;3.00;2.90;;;;;;;3.73;54.38;100866.13;5074517;28;20470;-50
2022/03/31 10:34:54;;;;;;;3.10;3.00;;;;;;;3.76;57.05;100868.47;5074012;28;20848;-47
2022/03/31 10:37:34;;;;;;;3.40;3.20;;;;;;;3.84;55.97;100861.47;5074602;28;20933;-46
2022/03/31 10:40:04;;;;;;;3.77;3.50;;;;;;;3.98;56.50;100860.09;5074379;28;20437;-50
2022/03/31 10:42:32;;;;;;;3.73;3.37;;;;;;;3.99;56.11;100866.22;5074557;28;20436;-50
2022/03/31 10:45:13;;;;;;;3.70;3.50;;;;;;;4.05;56.61;100870.88;5068232;28;20462;-50
2022/03/31 10:47:43;;;;;;;3.73;3.57;;;;;;;4.05;57.39;100868.25;5066065;28;20492;-50
2022/03/31 10:50:24;;;;;;;4.30;3.93;;;;;;;4.28;59.19;100864.97;5074319;28;20487;-44
2022/03/31 10:52:59;;;;;;;4.80;4.60;;;;;;;4.34;57.98;100859.09;5074260;28;20561;-47
2022/03/31 10:55:35;;;;;;;4.33;3.93;;;;;;;4.39;57.43;100872.66;5073739;28;20480;-48
2022/03/31 10:58:04;;;;;;;5.03;4.00;;;;;;;4.38;59.05;100878.09;5074349;28;20422;-50
2022/03/31 11:00:32;;;;;;;4.23;4.03;;;;;;;4.42;57.00;100871.53;5073988;28;20439;-49
2022/03/31 11:02:59;;;;;;;4.50;4.20;;;;;;;4.20;53.44;100870.19;5073974;28;20422;-48
2022/03/31 11:05:47;;;;;;;4.40;4.10;;;;;;;4.35;54.91;100855.47;5074002;28;20844;-50
2022/03/31 11:08:17;;;;;;;4.57;4.27;;;;;;;4.27;54.14;100865.94;5074289;28;20434;-46
2022/03/31 11:10:46;;;;;;;3.60;3.50;;;;;;;4.17;53.73;100875.78;5073775;28;20437;-46
2022/03/31 11:13:15;;;;;;;3.67;3.57;;;;;;;4.33;55.46;100853.97;5073489;28;20794;-45
2022/03/31 11:15:44;;;;;;;4.37;3.90;;;;;;;4.25;54.79;100827.50;5073955;28;20460;-48
2022/03/31 11:18:11;;;;;;;4.83;4.23;;;;;;;4.22;54.63;100859.47;5074072;28;20431;-47
2022/03/31 11:20:39;;;;;;;4.10;3.83;;;;;;;4.07;54.66;100858.34;5073955;28;20426;-48
2022/03/31 11:23:08;;;;;;;3.40;3.30;;;;;;;4.14;52.78;100844.41;5072890;28;20426;-46
2022/03/31 11:25:37;;;;;;;4.20;3.90;;;;;;;4.21;52.69;100849.91;5073745;28;20446;-47
2022/03/31 11:28:09;;;;;;;3.93;3.63;;;;;;;4.17;51.47;100830.09;5073573;28;20438;-46
2022/03/31 11:30:38;;;;;;;3.37;3.27;;;;;;;4.21;51.91;100850.72;5073575;28;20436;-50
2022/03/31 11:33:09;;;;;;;4.00;3.70;;;;;;;4.05;53.59;100847.97;5073167;28;20977;-48
2022/03/31 11:35:38;;;;;;;4.03;3.83;;;;;;;4.06;52.17;100825.84;5073458;28;20810;-50
2022/03/31 11:38:07;;;;;;;4.13;3.80;;;;;;;4.08;53.78;100838.91;5073508;28;20431;-49